Time;durP1;ratioP1;P1;durP2;ratioP2;P2;SDS_P1;SDS_P2;PMS_P1;PMS_P2;Temp;Humidity;BMP_temperature;BMP_pressure;BME280_temperature;BME280_humidity;BME280_pressure;Samples;Min_cycle;Max_cycle;Signal;HPM_P1;HPM_P2
2022/03/16 00:02:20;;;;;;;21.20;13.47;;;;;;;;;;5097267;28;20541;-69
2022/03/16 00:04:48;;;;;;;17.47;13.57;;;;;;;;;;5111201;28;20454;-69
2022/03/16 00:07:15;;;;;;;19.60;13.87;;;;;;;;;;5111416;28;20452;-69
2022/03/16 00:09:42;;;;;;;18.83;13.10;;;;;;;;;;5110949;28;20872;-70
2022/03/16 00:12:11;;;;;;;17.23;12.37;;;;;;;;;;5111536;28;20450;-70
2022/03/16 00:14:39;;;;;;;18.17;14.27;;;;;;;;;;5100326;28;20526;-69
2022/03/16 00:17:07;;;;;;;16.93;13.80;;;;;;;;;;5103022;28;20451;-70
2022/03/16 00:19:34;;;;;;;18.83;13.60;;;;;;;;;;5110490;28;20435;-70
2022/03/16 00:22:02;;;;;;;19.33;14.70;;;;;;;;;;5095120;28;20440;-69
2022/03/16 00:24:29;;;;;;;18.50;14.40;;;;;;;;;;5094696;28;20487;-69
2022/03/16 00:26:57;;;;;;;18.73;14.10;;;;;;;;;;5103854;28;20527;-69
2022/03/16 00:29:24;;;;;;;20.33;14.10;;;;;;;;;;5104894;28;20454;-68
2022/03/16 00:31:53;;;;;;;20.70;15.03;;;;;;;;;;5111117;28;20455;-69
2022/03/16 00:34:20;;;;;;;20.37;14.10;;;;;;;;;;5110826;28;20501;-70
2022/03/16 00:36:48;;;;;;;18.70;13.23;;;;;;;;;;5110283;28;20451;-69
2022/03/16 00:39:15;;;;;;;20.23;14.87;;;;;;;;;;5108746;28;20925;-69
2022/03/16 00:41:42;;;;;;;19.67;14.50;;;;;;;;;;5106692;28;20530;-69
2022/03/16 00:44:10;;;;;;;21.50;14.80;;;;;;;;;;5099130;28;20932;-69
2022/03/16 00:46:37;;;;;;;20.63;15.07;;;;;;;;;;5101832;28;20525;-69
2022/03/16 00:49:06;;;;;;;20.80;15.90;;;;;;;;;;5110570;28;20447;-69
2022/03/16 00:51:33;;;;;;;21.00;15.53;;;;;;;;;;5109686;28;20448;-69
2022/03/16 00:54:01;;;;;;;21.73;16.97;;;;;;;;;;5110641;28;20550;-69
2022/03/16 00:56:28;;;;;;;22.83;16.70;;;;;;;;;;5105741;28;20440;-69
2022/03/16 00:58:55;;;;;;;21.90;15.67;;;;;;;;;;5104689;28;20480;-69
2022/03/16 01:01:22;;;;;;;24.80;17.40;;;;;;;;;;5106481;28;20534;-69
2022/03/16 01:03:49;;;;;;;23.20;16.23;;;;;;;;;;5110480;28;20440;-69
2022/03/16 01:06:20;;;;;;;24.07;16.73;;;;;;;;;;5110383;28;20542;-69
2022/03/16 01:08:47;;;;;;;25.43;16.70;;;;;;;;;;5096272;28;20472;-69
2022/03/16 01:11:14;;;;;;;25.30;17.63;;;;;;;;;;5110630;28;20448;-69
2022/03/16 01:13:42;;;;;;;23.37;17.80;;;;;;;;;;5109943;28;20444;-69
2022/03/16 01:16:09;;;;;;;26.07;18.80;;;;;;;;;;5110736;28;20467;-69
2022/03/16 01:18:37;;;;;;;22.67;16.60;;;;;;;;;;5109822;28;20586;-69
2022/03/16 01:21:05;;;;;;;24.30;17.90;;;;;;;;;;5110183;28;20440;-69
2022/03/16 01:23:35;;;;;;;24.50;18.00;;;;;;;;;;5110193;28;20452;-69
2022/03/16 01:26:02;;;;;;;24.93;17.23;;;;;;;;;;5108527;28;20534;-69
2022/03/16 01:28:29;;;;;;;26.47;19.13;;;;;;;;;;5098191;28;20888;-69
2022/03/16 01:30:57;;;;;;;30.50;21.27;;;;;;;;;;5110557;28;20857;-69
2022/03/16 01:33:25;;;;;;;26.57;18.57;;;;;;;;;;5109613;28;20459;-69
2022/03/16 01:35:52;;;;;;;30.83;20.47;;;;;;;;;;5097869;28;20523;-69
2022/03/16 01:38:19;;;;;;;24.40;18.63;;;;;;;;;;5110613;28;20479;-69
2022/03/16 01:40:47;;;;;;;30.23;21.63;;;;;;;;;;5109684;28;20944;-69
2022/03/16 01:43:15;;;;;;;27.00;18.43;;;;;;;;;;5101234;28;20486;-69
2022/03/16 01:45:46;;;;;;;26.77;19.00;;;;;;;;;;5096209;28;20539;-69
2022/03/16 01:48:13;;;;;;;29.63;20.13;;;;;;;;;;5099682;28;20457;-68
2022/03/16 01:50:40;;;;;;;29.17;19.23;;;;;;;;;;5107393;28;20450;-69
2022/03/16 01:53:07;;;;;;;28.77;19.50;;;;;;;;;;5110741;28;20542;-68
2022/03/16 01:55:35;;;;;;;27.53;18.27;;;;;;;;;;5105820;28;20549;-69
2022/03/16 01:58:03;;;;;;;28.07;19.20;;;;;;;;;;5109868;28;20570;-69
2022/03/16 02:00:31;;;;;;;27.40;18.50;;;;;;;;;;5109628;28;20475;-69
2022/03/16 02:02:58;;;;;;;28.40;19.77;;;;;;;;;;5108856;28;20509;-69
2022/03/16 02:05:25;;;;;;;26.40;19.37;;;;;;;;;;5111959;28;20486;-68
2022/03/16 02:07:53;;;;;;;28.73;19.20;;;;;;;;;;5102469;28;20936;-68
2022/03/16 02:10:21;;;;;;;29.83;20.50;;;;;;;;;;5107388;28;20440;-68
2022/03/16 02:12:49;;;;;;;31.17;20.70;;;;;;;;;;5109807;28;20677;-68
2022/03/16 02:15:18;;;;;;;28.63;19.57;;;;;;;;;;5101110;28;20466;-69
2022/03/16 02:17:45;;;;;;;26.65;19.10;;;;;;;;;;5112972;28;20896;-69
2022/03/16 02:20:13;;;;;;;27.50;19.13;;;;;;;;;;5114017;28;20448;-69
2022/03/16 02:22:49;;;;;;;28.33;20.20;;;;;;;;;;5112569;28;20471;-69
2022/03/16 02:25:16;;;;;;;28.30;18.97;;;;;;;;;;5098304;28;20456;-69
2022/03/16 02:27:43;;;;;;;28.70;19.20;;;;;;;;;;5096614;28;20455;-69
2022/03/16 02:30:11;;;;;;;27.50;19.90;;;;;;;;;;5102305;28;20439;-69
2022/03/16 02:32:39;;;;;;;27.37;19.30;;;;;;;;;;5112935;28;20453;-69
2022/03/16 02:35:06;;;;;;;25.77;18.37;;;;;;;;;;5104022;28;20455;-69
2022/03/16 02:37:33;;;;;;;27.43;18.80;;;;;;;;;;5105460;28;20444;-68
2022/03/16 02:40:01;;;;;;;30.67;20.00;;;;;;;;;;5101767;28;20570;-68
2022/03/16 02:42:29;;;;;;;25.53;18.37;;;;;;;;;;5111529;28;20439;-68
2022/03/16 02:44:56;;;;;;;30.20;18.53;;;;;;;;;;5113607;28;20451;-69
2022/03/16 02:47:24;;;;;;;24.40;18.83;;;;;;;;;;5108405;28;20444;-69
2022/03/16 02:49:51;;;;;;;29.50;20.80;;;;;;;;;;5105797;28;20475;-68
2022/03/16 02:52:18;;;;;;;26.17;19.67;;;;;;;;;;5108476;28;20446;-69
2022/03/16 02:54:46;;;;;;;31.33;22.30;;;;;;;;;;5112175;28;20490;-68
2022/03/16 02:57:16;;;;;;;33.37;19.93;;;;;;;;;;5107704;28;20439;-69
2022/03/16 02:59:43;;;;;;;33.80;21.73;;;;;;;;;;5100322;28;20877;-69
2022/03/16 03:02:10;;;;;;;33.90;22.77;;;;;;;;;;5112158;28;20443;-69
2022/03/16 03:04:37;;;;;;;36.53;22.30;;;;;;;;;;5111918;28;20482;-69
2022/03/16 03:07:05;;;;;;;28.17;20.30;;;;;;;;;;5111943;28;20979;-69
2022/03/16 03:09:32;;;;;;;34.57;21.50;;;;;;;;;;5107378;28;20447;-69
2022/03/16 03:12:01;;;;;;;36.90;22.50;;;;;;;;;;5110453;28;20785;-69
2022/03/16 03:14:30;;;;;;;36.07;21.67;;;;;;;;;;5111585;28;20447;-69
2022/03/16 03:16:57;;;;;;;40.53;23.07;;;;;;;;;;5104969;28;20480;-68
2022/03/16 03:19:24;;;;;;;35.97;22.83;;;;;;;;;;5112370;28;21007;-68
2022/03/16 03:21:52;;;;;;;34.63;24.30;;;;;;;;;;5112593;28;20448;-68
2022/03/16 03:24:19;;;;;;;37.67;23.60;;;;;;;;;;5106226;28;20542;-68
2022/03/16 03:26:46;;;;;;;35.83;22.17;;;;;;;;;;5111144;28;20519;-68
2022/03/16 03:29:14;;;;;;;34.17;22.77;;;;;;;;;;5110417;28;20935;-69
2022/03/16 03:31:43;;;;;;;34.53;22.97;;;;;;;;;;5108923;28;20940;-69
2022/03/16 03:34:10;;;;;;;41.60;25.73;;;;;;;;;;5110574;28;20467;-68
2022/03/16 03:36:37;;;;;;;37.57;23.80;;;;;;;;;;5109368;28;20440;-68
2022/03/16 03:39:04;;;;;;;45.07;26.30;;;;;;;;;;5111423;28;21075;-68
2022/03/16 03:41:32;;;;;;;37.40;24.87;;;;;;;;;;5110695;28;20443;-68
2022/03/16 03:43:59;;;;;;;38.70;23.93;;;;;;;;;;5105177;28;20456;-68
2022/03/16 03:46:26;;;;;;;40.10;25.03;;;;;;;;;;5111315;28;20477;-68
2022/03/16 03:48:55;;;;;;;42.63;24.00;;;;;;;;;;5101570;28;20959;-69
2022/03/16 03:51:22;;;;;;;40.70;25.43;;;;;;;;;;5107743;28;20447;-69
2022/03/16 03:53:49;;;;;;;36.57;23.80;;;;;;;;;;5111007;28;21080;-69
2022/03/16 03:56:17;;;;;;;45.10;26.03;;;;;;;;;;5107360;28;20531;-69
2022/03/16 03:58:45;;;;;;;45.00;25.50;;;;;;;;;;5093741;28;20487;-69
2022/03/16 04:01:12;;;;;;;46.37;28.57;;;;;;;;;;5103600;28;20440;-68
2022/03/16 04:03:39;;;;;;;42.17;25.77;;;;;;;;;;5097592;28;20506;-69
2022/03/16 04:06:08;;;;;;;38.03;24.37;;;;;;;;;;5110289;28;20530;-69
2022/03/16 04:08:35;;;;;;;40.77;24.10;;;;;;;;;;5111208;28;20449;-69
2022/03/16 04:11:03;;;;;;;36.70;22.30;;;;;;;;;;5111741;28;20535;-69
2022/03/16 04:13:30;;;;;;;39.47;23.17;;;;;;;;;;5099501;28;20543;-69
2022/03/16 04:15:57;;;;;;;40.30;26.77;;;;;;;;;;5110845;28;20444;-69
2022/03/16 04:18:26;;;;;;;41.00;24.70;;;;;;;;;;5109562;28;20466;-68
2022/03/16 04:20:53;;;;;;;39.03;25.60;;;;;;;;;;5104693;28;20439;-69
2022/03/16 04:23:21;;;;;;;37.13;24.30;;;;;;;;;;5110501;28;20444;-69
2022/03/16 04:25:49;;;;;;;44.70;27.10;;;;;;;;;;5099518;28;20514;-69
2022/03/16 04:28:16;;;;;;;39.13;24.47;;;;;;;;;;5108582;28;21007;-69
2022/03/16 04:30:43;;;;;;;42.77;25.57;;;;;;;;;;5108663;28;20450;-69
2022/03/16 04:33:10;;;;;;;38.10;24.40;;;;;;;;;;5103415;28;20444;-69
2022/03/16 04:35:37;;;;;;;36.90;22.73;;;;;;;;;;5110921;28;20889;-68
2022/03/16 04:38:05;;;;;;;39.03;24.93;;;;;;;;;;5091271;28;20440;-68
2022/03/16 04:40:33;;;;;;;38.30;22.53;;;;;;;;;;5105590;28;20490;-68
2022/03/16 04:43:00;;;;;;;42.57;24.87;;;;;;;;;;5111277;28;20535;-68
2022/03/16 04:45:28;;;;;;;45.43;26.93;;;;;;;;;;5109560;28;20463;-68
2022/03/16 04:47:55;;;;;;;41.40;25.53;;;;;;;;;;5110294;28;20522;-68
2022/03/16 04:50:22;;;;;;;42.17;27.10;;;;;;;;;;5109025;28;20538;-69
2022/03/16 04:52:50;;;;;;;42.03;24.10;;;;;;;;;;5101627;28;21038;-68
2022/03/16 04:55:17;;;;;;;40.23;25.30;;;;;;;;;;5105852;28;20562;-68
2022/03/16 04:57:46;;;;;;;40.30;23.83;;;;;;;;;;5107497;28;20475;-68
2022/03/16 05:00:13;;;;;;;48.30;28.20;;;;;;;;;;5094846;28;20486;-68
2022/03/16 05:02:41;;;;;;;46.83;26.83;;;;;;;;;;5110509;28;21011;-68
2022/03/16 05:05:10;;;;;;;44.03;26.60;;;;;;;;;;5108349;28;20531;-68
2022/03/16 05:07:37;;;;;;;48.03;26.13;;;;;;;;;;5108750;28;20447;-70
2022/03/16 05:10:05;;;;;;;47.87;28.73;;;;;;;;;;5101211;28;20943;-67
2022/03/16 05:12:37;;;;;;;44.50;27.50;;;;;;;;;;5110038;28;20436;-67
2022/03/16 05:15:06;;;;;;;43.37;25.97;;;;;;;;;;5093702;28;20468;-68
2022/03/16 05:17:33;;;;;;;41.97;26.77;;;;;;;;;;5102691;28;20527;-69
2022/03/16 05:20:00;;;;;;;44.87;26.63;;;;;;;;;;5110583;28;20580;-68
2022/03/16 05:22:28;;;;;;;47.20;28.07;;;;;;;;;;5109933;28;20453;-68
2022/03/16 05:24:55;;;;;;;43.40;25.10;;;;;;;;;;5110694;28;20451;-67
2022/03/16 05:27:22;;;;;;;53.27;28.87;;;;;;;;;;5091855;28;20492;-70
2022/03/16 05:29:49;;;;;;;47.10;26.77;;;;;;;;;;5109450;28;20467;-69
2022/03/16 05:32:18;;;;;;;41.77;26.27;;;;;;;;;;5110619;28;20454;-70
2022/03/16 05:34:45;;;;;;;46.33;26.60;;;;;;;;;;5102637;28;20526;-71
2022/03/16 05:37:12;;;;;;;46.63;27.23;;;;;;;;;;5105338;28;21012;-71
2022/03/16 05:39:39;;;;;;;41.03;25.57;;;;;;;;;;5114010;28;20479;-70
2022/03/16 05:42:08;;;;;;;42.20;27.00;;;;;;;;;;5114195;28;20443;-71
2022/03/16 05:44:35;;;;;;;47.37;27.30;;;;;;;;;;5114004;28;20447;-70
2022/03/16 05:47:02;;;;;;;40.80;26.27;;;;;;;;;;5114258;28;20493;-70
2022/03/16 05:49:30;;;;;;;44.83;27.23;;;;;;;;;;5113512;28;20997;-70
2022/03/16 05:51:58;;;;;;;40.53;26.10;;;;;;;;;;5113876;28;20504;-70
2022/03/16 05:54:25;;;;;;;44.47;25.70;;;;;;;;;;5100991;28;20478;-71
2022/03/16 05:56:52;;;;;;;42.27;25.57;;;;;;;;;;5099402;28;20443;-70
2022/03/16 05:59:19;;;;;;;43.13;27.57;;;;;;;;;;5113923;28;20479;-70
2022/03/16 06:01:46;;;;;;;42.70;27.23;;;;;;;;;;5113463;28;20479;-70
2022/03/16 06:04:13;;;;;;;45.40;25.60;;;;;;;;;;5114093;28;20854;-70
2022/03/16 06:06:42;;;;;;;45.17;26.23;;;;;;;;;;5113511;28;20471;-70
2022/03/16 06:09:09;;;;;;;49.63;28.70;;;;;;;;;;5114475;28;20439;-70
2022/03/16 06:11:39;;;;;;;103.63;62.67;;;;;;;;;;5113343;28;20538;-70
2022/03/16 06:14:06;;;;;;;62.37;40.27;;;;;;;;;;5113942;28;20450;-69
2022/03/16 06:16:33;;;;;;;57.17;35.03;;;;;;;;;;5112825;28;20527;-71
2022/03/16 06:19:00;;;;;;;52.57;30.30;;;;;;;;;;5114121;28;20476;-70
2022/03/16 06:21:27;;;;;;;44.50;27.87;;;;;;;;;;5114485;28;20467;-70
2022/03/16 06:23:56;;;;;;;41.53;27.17;;;;;;;;;;5113976;28;20479;-70
2022/03/16 06:26:23;;;;;;;48.23;28.73;;;;;;;;;;5114419;28;20440;-69
2022/03/16 06:28:51;;;;;;;48.33;28.10;;;;;;;;;;5114400;28;20455;-69
2022/03/16 06:31:18;;;;;;;47.23;27.10;;;;;;;;;;5113800;28;20452;-70
2022/03/16 06:33:45;;;;;;;50.83;27.83;;;;;;;;;;5112946;28;20760;-70
2022/03/16 06:36:12;;;;;;;47.00;27.23;;;;;;;;;;5113601;28;20452;-70
2022/03/16 06:38:39;;;;;;;42.63;26.23;;;;;;;;;;5113320;28;20483;-70
2022/03/16 06:41:08;;;;;;;46.13;27.87;;;;;;;;;;5113562;28;20483;-71
2022/03/16 06:43:35;;;;;;;47.50;26.03;;;;;;;;;;5112394;28;20468;-70
2022/03/16 06:46:02;;;;;;;48.67;27.60;;;;;;;;;;5113234;28;21004;-71
2022/03/16 06:48:29;;;;;;;50.00;26.77;;;;;;;;;;5112289;28;20928;-71
2022/03/16 06:50:57;;;;;;;49.13;27.03;;;;;;;;;;5113253;28;20534;-71
2022/03/16 06:53:25;;;;;;;45.00;25.70;;;;;;;;;;5113229;28;20451;-70
2022/03/16 06:55:52;;;;;;;46.37;26.90;;;;;;;;;;5112818;28;20528;-70
2022/03/16 06:58:21;;;;;;;50.37;28.37;;;;;;;;;;5112915;28;20444;-71
2022/03/16 07:00:48;;;;;;;46.00;26.63;;;;;;;;;;5098846;28;20472;-70
2022/03/16 07:03:15;;;;;;;43.30;26.27;;;;;;;;;;5112529;28;20943;-70
2022/03/16 07:05:43;;;;;;;49.37;29.00;;;;;;;;;;5112907;28;20440;-70
2022/03/16 07:08:11;;;;;;;45.73;26.40;;;;;;;;;;5113412;28;20500;-69
2022/03/16 07:10:39;;;;;;;42.30;25.30;;;;;;;;;;5112405;28;20491;-69
2022/03/16 07:13:07;;;;;;;44.50;26.40;;;;;;;;;;5112262;28;20447;-70
2022/03/16 07:15:36;;;;;;;46.60;27.17;;;;;;;;;;5112221;28;20483;-70
2022/03/16 07:18:03;;;;;;;52.43;29.43;;;;;;;;;;5112901;28;20444;-71
2022/03/16 07:20:30;;;;;;;44.77;26.37;;;;;;;;;;5112161;28;20514;-70
2022/03/16 07:23:05;;;;;;;49.03;28.27;;;;;;;;;;5112425;28;20547;-70
2022/03/16 07:25:32;;;;;;;47.40;27.50;;;;;;;;;;5111798;28;20500;-69
2022/03/16 07:27:59;;;;;;;42.93;25.23;;;;;;;;;;5112510;28;20481;-70
2022/03/16 07:30:27;;;;;;;42.53;25.00;;;;;;;;;;5112008;28;20535;-71
2022/03/16 07:32:55;;;;;;;47.50;26.03;;;;;;;;;;5112273;28;20857;-71
2022/03/16 07:35:26;;;;;;;46.00;25.57;;;;;;;;;;5112398;28;20482;-71
2022/03/16 07:37:53;;;;;;;43.37;26.97;;;;;;;;;;5112375;28;20448;-71
2022/03/16 07:40:21;;;;;;;45.53;26.60;;;;;;;;;;5112182;28;20574;-71
2022/03/16 07:42:48;;;;;;;50.03;26.37;;;;;;;;;;5110873;28;20447;-70
2022/03/16 07:45:18;;;;;;;48.40;26.13;;;;;;;;;;5112345;28;20450;-70
2022/03/16 07:47:45;;;;;;;42.60;25.50;;;;;;;;;;5112198;28;20925;-70
2022/03/16 07:50:14;;;;;;;49.37;25.57;;;;;;;;;;5112545;28;20475;-71
2022/03/16 07:52:42;;;;;;;42.33;25.70;;;;;;;;;;5111499;28;20531;-71
2022/03/16 07:55:09;;;;;;;49.10;26.23;;;;;;;;;;5111951;28;20475;-70
2022/03/16 07:57:37;;;;;;;39.87;23.47;;;;;;;;;;5111483;28;20482;-70
2022/03/16 08:00:04;;;;;;;41.17;22.10;;;;;;;;;;5111375;28;20483;-70
2022/03/16 08:02:31;;;;;;;39.07;23.43;;;;;;;;;;5111244;28;20959;-70
2022/03/16 08:05:00;;;;;;;37.13;21.70;;;;;;;;;;5111666;28;20450;-70
2022/03/16 08:07:29;;;;;;;34.60;20.40;;;;;;;;;;5111411;28;20443;-70
2022/03/16 08:09:56;;;;;;;36.40;22.67;;;;;;;;;;5111599;28;20535;-69
2022/03/16 08:12:24;;;;;;;31.63;19.57;;;;;;;;;;5112049;28;20542;-70
2022/03/16 08:14:51;;;;;;;30.87;20.70;;;;;;;;;;5111353;28;20470;-70
2022/03/16 08:17:18;;;;;;;33.30;20.10;;;;;;;;;;5111415;28;20454;-71
2022/03/16 08:19:46;;;;;;;32.43;20.73;;;;;;;;;;5110871;28;20530;-71
2022/03/16 08:22:13;;;;;;;36.10;20.70;;;;;;;;;;5111479;28;20454;-70
2022/03/16 08:24:41;;;;;;;41.13;21.80;;;;;;;;;;5110120;28;20452;-69
2022/03/16 08:27:09;;;;;;;38.40;22.00;;;;;;;;;;5111877;28;20454;-69
2022/03/16 08:29:36;;;;;;;38.70;19.93;;;;;;;;;;5111044;28;20448;-70
2022/03/16 08:32:03;;;;;;;33.33;20.40;;;;;;;;;;5111195;28;20458;-70
2022/03/16 08:34:31;;;;;;;30.80;21.37;;;;;;;;;;5110744;28;20452;-70
2022/03/16 08:37:00;;;;;;;37.13;22.20;;;;;;;;;;5111459;28;20810;-70
2022/03/16 08:39:28;;;;;;;32.37;19.03;;;;;;;;;;5097221;28;20447;-70
2022/03/16 08:41:56;;;;;;;25.47;17.00;;;;;;;;;;5111154;28;20515;-69
2022/03/16 08:44:24;;;;;;;29.77;20.23;;;;;;;;;;5111075;28;20443;-70
2022/03/16 08:46:51;;;;;;;31.67;19.33;;;;;;;;;;5111237;28;20452;-70
2022/03/16 08:49:18;;;;;;;36.17;21.40;;;;;;;;;;5111321;28;20452;-71
2022/03/16 08:51:45;;;;;;;35.10;20.73;;;;;;;;;;5110343;28;20544;-70
2022/03/16 08:54:13;;;;;;;32.67;20.17;;;;;;;;;;5110320;28;20607;-69
2022/03/16 08:56:40;;;;;;;33.63;20.43;;;;;;;;;;5110571;28;20471;-70
2022/03/16 08:59:09;;;;;;;33.60;20.43;;;;;;;;;;5111106;28;20439;-71
2022/03/16 09:01:37;;;;;;;29.37;18.70;;;;;;;;;;5109816;28;20479;-71
2022/03/16 09:04:04;;;;;;;31.20;19.53;;;;;;;;;;5110257;28;20963;-70
2022/03/16 09:06:32;;;;;;;28.43;20.03;;;;;;;;;;5109930;28;20484;-71
2022/03/16 09:08:59;;;;;;;33.97;21.17;;;;;;;;;;5110968;28;20463;-71
2022/03/16 09:11:26;;;;;;;32.77;20.83;;;;;;;;;;5112109;28;20509;-70
2022/03/16 09:13:53;;;;;;;31.93;19.77;;;;;;;;;;5114837;28;20509;-70
2022/03/16 09:16:22;;;;;;;31.83;19.27;;;;;;;;;;5115555;28;20451;-71
2022/03/16 09:18:50;;;;;;;24.57;16.70;;;;;;;;;;5114519;28;21000;-70
2022/03/16 09:21:18;;;;;;;35.73;20.37;;;;;;;;;;5114797;28;20574;-70
2022/03/16 09:23:45;;;;;;;26.20;19.23;;;;;;;;;;5113893;28;21268;-71
2022/03/16 09:26:12;;;;;;;29.13;20.10;;;;;;;;;;5114845;28;20451;-70
2022/03/16 09:28:39;;;;;;;30.57;19.90;;;;;;;;;;5114440;28;20456;-70
2022/03/16 09:31:09;;;;;;;30.50;20.70;;;;;;;;;;5114986;28;20475;-71
2022/03/16 09:33:37;;;;;;;30.77;18.30;;;;;;;;;;5113822;28;20456;-70
2022/03/16 09:36:08;;;;;;;29.30;19.67;;;;;;;;;;5114931;28;20450;-70
2022/03/16 09:38:35;;;;;;;31.73;18.80;;;;;;;;;;5114370;28;20892;-71
2022/03/16 09:41:02;;;;;;;30.53;19.83;;;;;;;;;;5114548;28;20514;-70
2022/03/16 09:43:32;;;;;;;36.47;20.40;;;;;;;;;;5113862;28;20526;-71
2022/03/16 09:46:04;;;;;;;36.43;19.60;;;;;;;;;;5114668;28;20496;-71
2022/03/16 09:48:32;;;;;;;29.60;18.23;;;;;;;;;;5113930;28;20447;-70
2022/03/16 09:51:01;;;;;;;29.50;18.53;;;;;;;;;;5101459;28;20496;-70
2022/03/16 09:53:28;;;;;;;30.13;19.07;;;;;;;;;;5113851;28;20447;-70
2022/03/16 09:55:55;;;;;;;29.93;19.37;;;;;;;;;;5114360;28;20577;-71
2022/03/16 09:58:23;;;;;;;28.97;19.80;;;;;;;;;;5114332;28;20526;-70
2022/03/16 10:00:52;;;;;;;31.77;20.37;;;;;;;;;;5114272;28;20566;-71
2022/03/16 10:03:22;;;;;;;30.27;20.37;;;;;;;;;;5114063;28;20485;-71
2022/03/16 10:05:50;;;;;;;26.10;18.57;;;;;;;;;;5113660;28;20602;-71
2022/03/16 10:08:26;;;;;;;31.00;19.20;;;;;;;;;;5114133;28;20872;-70
2022/03/16 10:13:49;;;;;;;27.93;18.67;;;;;;;;;;5101139;28;20559;-71
2022/03/16 10:16:16;;;;;;;23.47;16.63;;;;;;;;;;5114215;28;20521;-71
2022/03/16 10:18:46;;;;;;;22.37;16.80;;;10.40;99.90;;;;;;5113402;28;20486;-71
2022/03/16 10:21:13;;;;;;;28.47;17.93;;;11.00;1.00;;;;;;5113642;28;21063;-70
2022/03/16 10:23:45;;;;;;;24.63;17.10;;;10.90;2.40;;;;;;5111889;28;20443;-70
2022/03/16 10:26:17;;;;;;;22.40;15.67;;;11.00;1.00;;;;;;5113469;28;20552;-71
2022/03/16 10:28:47;;;;;;;24.20;15.53;;;11.00;1.00;;;;;;5112823;28;20505;-70
2022/03/16 10:31:15;;;;;;;23.50;15.77;;;11.10;1.00;;;;;;5113853;28;20451;-70
2022/03/16 10:33:47;;;;;;;22.17;15.43;;;11.20;1.00;;;;;;5112689;28;20451;-70
2022/03/16 10:36:16;;;;;;;22.37;15.23;;;11.30;99.90;;;;;;5114600;28;20459;-70
2022/03/16 10:38:46;;;;;;;22.20;14.23;;;11.60;99.90;;;;;;5113219;28;20512;-70
2022/03/16 10:46:34;;;;;;;22.13;14.90;;;11.70;1.00;;;;;;5100796;28;20904;-70
2022/03/16 10:46:49;;;;;;;18.50;13.20;;;11.40;1.00;;;;;;5112891;28;20416;-70
2022/03/16 10:49:19;;;;;;;20.40;15.07;;;11.50;1.00;;;;;;5101768;28;20527;-71
2022/03/16 10:51:46;;;;;;;18.67;13.77;;;11.50;1.00;;;;;;5112837;28;20454;-70
2022/03/16 10:54:16;;;;;;;19.87;14.23;;;11.60;99.90;;;;;;5112990;28;20505;-71
2022/03/16 10:56:44;;;;;;;20.80;13.70;;;11.60;99.90;;;;;;5112471;28;20451;-71
2022/03/16 10:59:11;;;;;;;15.67;11.87;;;11.70;1.00;;;;;;5113384;28;20439;-70
2022/03/16 11:01:40;;;;;;;19.93;14.80;;;11.70;24.90;;;;;;5112771;28;20482;-70
2022/03/16 11:04:08;;;;;;;18.20;13.50;;;11.80;1.00;;;;;;5112862;28;20492;-70
2022/03/16 11:06:36;;;;;;;20.40;14.90;;;11.90;99.90;;;;;;5112421;28;20508;-71
2022/03/16 11:09:03;;;;;;;18.73;14.73;;;;;;;;;;5112895;28;20455;-71
2022/03/16 11:14:20;;;;;;;16.07;13.30;;;;;;;;;;5112340;28;20430;-71
2022/03/16 11:16:47;;;;;;;25.20;14.23;;;;;;;;;;5112536;28;20447;-71
2022/03/16 11:19:17;;;;;;;17.57;14.00;;;;;;;;;;5112844;28;20924;-71
2022/03/16 11:21:46;;;;;;;17.73;13.50;;;;;;;;;;5099196;28;20472;-71
2022/03/16 11:24:16;;;;;;;17.77;13.67;;;;;;;;;;5112597;28;20546;-71
2022/03/16 11:26:48;;;;;;;16.97;12.67;;;;;;;;;;5112203;28;20455;-71
2022/03/16 11:29:19;;;;;;;19.77;14.00;;;;;;;;;;5112674;28;20455;-71
2022/03/16 11:31:46;;;;;;;20.17;13.90;;;;;;;;;;5111906;28;20475;-71
2022/03/16 11:34:14;;;;;;;19.77;14.00;;;;;;;;;;5111271;28;20487;-70
2022/03/16 11:36:42;;;;;;;20.40;14.23;;;;;;;;;;5111186;28;20452;-71
2022/03/16 11:39:17;;;;;;;21.37;14.37;;;;;;;;;;5112355;28;20444;-71
2022/03/16 11:41:53;;;;;;;20.20;14.20;;;;;;;;;;5111840;28;20562;-72
2022/03/16 11:44:28;;;;;;;18.37;14.00;;;;;;;;;;5111865;28;20447;-71
2022/03/16 11:46:55;;;;;;;20.93;14.23;;;;;;;;;;5112587;28;20530;-71
2022/03/16 11:49:28;;;;;;;21.93;14.77;;;;;;;;;;5111946;28;20638;-70
2022/03/16 11:51:59;;;;;;;18.37;14.60;;;;;;;;;;5112277;28;20534;-70
2022/03/16 11:54:40;;;;;;;19.33;13.77;;;;;;;;;;5110663;28;20820;-71
2022/03/16 11:57:09;;;;;;;23.70;15.10;;;;;;;;;;5112421;28;20440;-70
2022/03/16 11:59:43;;;;;;;17.00;12.87;;;;;;;;;;5111337;28;20547;-71
2022/03/16 12:02:24;;;;;;;18.07;12.63;;;;;;;;;;5112288;28;20479;-71
2022/03/16 12:04:51;;;;;;;20.07;14.17;;;;;;;;;;5112453;28;20450;-70
2022/03/16 12:07:19;;;;;;;23.13;14.50;;;;;;;;;;5112150;28;20861;-71
2022/03/16 12:09:47;;;;;;;16.07;13.17;;;;;;;;;;5110947;28;20536;-71
2022/03/16 12:15:09;;;;;;;16.23;12.90;;;;;;;;;;5111292;28;20419;-71
2022/03/16 12:17:37;;;;;;;18.73;12.30;;;;;;;;;;5111397;28;20442;-71
2022/03/16 12:20:09;;;;;;;21.80;13.70;;;;;;;;;;5111178;28;20521;-71
2022/03/16 12:22:42;;;;;;;21.23;14.90;;;;;;;;;;5110580;28;20564;-71
2022/03/16 12:25:29;;;;;;;18.77;14.50;;;;;;;;;;5111920;28;20546;-71
2022/03/16 12:30:44;;;;;;;16.83;13.27;;;;;;;;;;5110939;28;20481;-70
2022/03/16 12:33:12;;;;;;;22.70;13.00;;;;;;;;;;5111322;28;20459;-71
2022/03/16 12:35:39;;;;;;;18.17;12.40;;;;;;;;;;5110716;28;20951;-70
2022/03/16 12:38:07;;;;;;;16.90;12.80;;;;;;;;;;5112758;28;20530;-70
2022/03/16 12:40:34;;;;;;;17.33;12.73;;;;;;;;;;5111449;28;20448;-70
2022/03/16 12:43:02;;;;;;;17.67;13.53;;;;;;;;;;5111184;28;20493;-71
2022/03/16 12:45:31;;;;;;;17.97;13.63;;;;;;;;;;5110195;28;21051;-71
2022/03/16 12:48:04;;;;;;;17.23;14.10;;;;;;;;;;5111199;28;20450;-71
2022/03/16 12:50:31;;;;;;;20.37;14.30;;;;;;;;;;5110467;28;20448;-71
2022/03/16 12:52:58;;;;;;;16.80;12.30;;;;;;;;;;5110590;28;20490;-71
2022/03/16 12:55:26;;;;;;;18.50;12.93;;;;;;;;;;5108914;28;20515;-71
2022/03/16 12:57:56;;;;;;;18.60;12.77;;;;;;;;;;5110926;28;20484;-71
2022/03/16 13:00:31;;;;;;;19.37;13.90;;;;;;;;;;5110876;28;20917;-71
2022/03/16 13:03:12;;;;;;;18.97;13.83;;;;;;;;;;5111152;28;20478;-71
2022/03/16 13:05:40;;;;;;;17.00;13.30;;;;;;;;;;5098479;28;20440;-70
2022/03/16 13:08:07;;;;;;;20.63;14.83;;;;;;;;;;5110626;28;20534;-71
2022/03/16 13:11:14;;;;;;;15.60;12.10;;;;;;;;;;5110718;28;20798;-70
2022/03/16 13:13:22;;;;;;;14.97;11.67;;;;;;;;;;5110273;28;20446;-71
2022/03/16 13:15:51;;;;;;;17.57;12.97;;;;;;;;;;5110034;28;20448;-71
2022/03/16 13:18:29;;;;;;;15.87;13.10;;;;;;;;;;5110226;28;20541;-70
2022/03/16 13:20:57;;;;;;;15.63;11.90;;;;;;;;;;5111105;28;20850;-70
2022/03/16 13:23:29;;;;;;;17.73;13.07;;;;;;;;;;5097289;28;20491;-71
2022/03/16 13:26:07;;;;;;;16.90;11.90;;;;;;;;;;5110877;28;20456;-71
2022/03/16 13:28:35;;;;;;;14.83;11.50;;;;;;;;;;5110677;28;20436;-71
2022/03/16 13:31:03;;;;;;;13.87;11.67;;;;;;;;;;5110671;28;20952;-71
2022/03/16 13:33:31;;;;;;;15.20;11.43;;;;;;;;;;5109582;28;21031;-71
2022/03/16 13:36:09;;;;;;;16.90;12.53;;;;;;;;;;5110751;28;20439;-71
2022/03/16 13:38:37;;;;;;;17.63;12.20;;;;;;;;;;5110239;28;20496;-71
2022/03/16 13:41:11;;;;;;;15.93;12.50;;;;;;;;;;5110510;28;20498;-71
2022/03/16 13:43:39;;;;;;;15.80;12.20;;;;;;;;;;5109825;28;20495;-71
2022/03/16 13:46:09;;;;;;;15.57;11.47;;;;;;;;;;5110422;28;20479;-71
2022/03/16 13:48:38;;;;;;;16.63;13.20;;;;;;;;;;5109971;28;20535;-70
2022/03/16 13:51:06;;;;;;;15.57;12.40;;;;;;;;;;5110481;28;20542;-70
2022/03/16 13:53:40;;;;;;;15.00;11.80;;;;;;;;;;5109689;28;20464;-71
2022/03/16 13:56:13;;;;;;;16.70;11.80;;;;;;;;;;5111064;28;20879;-70
2022/03/16 13:58:41;;;;;;;15.13;11.37;;;;;;;;;;5111474;28;20432;-71
2022/03/16 14:01:10;;;;;;;15.50;11.87;;;;;;;;;;5114199;28;20512;-69
2022/03/16 14:03:37;;;;;;;17.83;12.70;;;;;;;;;;5113511;28;20491;-70
2022/03/16 14:06:12;;;;;;;15.47;11.20;;;;;;;;;;5114260;28;20932;-71
2022/03/16 14:08:40;;;;;;;17.60;12.50;;;;;;;;;;5114079;28;20859;-71
2022/03/16 14:11:07;;;;;;;14.40;11.83;;;;;;;;;;5114633;28;20447;-70
2022/03/16 14:13:39;;;;;;;18.73;12.87;;;;;;;;;;5113427;28;20451;-71
2022/03/16 14:16:13;;;;;;;19.40;12.10;;;;;;;;;;5114312;28;20450;-70
2022/03/16 14:18:40;;;;;;;21.87;13.27;;;;;;;;;;5113841;28;20444;-71
2022/03/16 14:21:08;;;;;;;14.13;11.47;;;11.90;1.00;;;;;;5114092;28;20448;-70
2022/03/16 14:23:35;;;;;;;16.43;12.10;;;14.10;1.00;;;;;;5112806;28;20480;-71
2022/03/16 14:26:02;;;;;;;17.10;12.50;;;14.00;1.00;;;;;;5113948;28;20479;-70
2022/03/16 14:28:29;;;;;;;17.13;13.80;;;13.90;1.00;;;;;;5113214;28;20978;-70
2022/03/16 14:30:56;;;;;;;15.23;12.13;;;13.90;1.00;;;;;;5113772;28;20451;-70